Time;durP1;ratioP1;P1;durP2;ratioP2;P2;SDS_P1;SDS_P2;PMS_P1;PMS_P2;Temp;Humidity;BMP_temperature;BMP_pressure;BME280_temperature;BME280_humidity;BME280_pressure;Samples;Min_cycle;Max_cycle;Signal;HPM_P1;HPM_P2
2022/12/23 00:01:30;;;;;;;5.40;3.80;;;12.40;79.00;;;;;;5075119;28;20048;-92
2022/12/23 00:03:57;;;;;;;6.40;3.85;;;12.40;79.00;;;;;;5042099;28;20406;-90
2022/12/23 00:06:24;;;;;;;4.68;3.70;;;12.40;79.00;;;;;;5041730;28;20123;-92
2022/12/23 00:08:56;;;;;;;5.00;4.00;;;12.40;79.00;;;;;;5074933;28;20036;-91
2022/12/23 00:11:23;;;;;;;6.05;4.15;;;12.40;79.00;;;;;;5075284;28;20176;-92
2022/12/23 00:16:35;;;;;;;5.50;3.80;;;12.40;79.00;;;;;;5060362;28;20071;-92
2022/12/23 00:19:00;;;;;;;4.95;3.55;;;12.50;79.00;;;;;;5059353;28;20037;-90
2022/12/23 00:21:26;;;;;;;5.20;3.83;;;12.40;79.00;;;;;;5076643;28;20182;-92
2022/12/23 00:23:52;;;;;;;6.45;4.18;;;12.40;79.00;;;;;;5058079;28;20048;-92
2022/12/23 00:26:21;;;;;;;5.65;3.92;;;12.50;79.00;;;;;;5057839;28;20036;-91
2022/12/23 00:28:48;;;;;;;5.72;4.07;;;12.40;79.00;;;;;;5075243;28;20029;-91
2022/12/23 00:31:17;;;;;;;5.50;3.92;;;12.40;79.00;;;;;;5057734;28;20048;-92
2022/12/23 00:33:45;;;;;;;4.35;3.70;;;12.50;79.10;;;;;;5057415;28;20099;-91
2022/12/23 00:36:19;;;;;;;5.10;3.85;;;12.50;79.00;;;;;;5041117;28;20052;-91
2022/12/23 00:44:14;;;;;;;6.37;4.30;;;12.50;78.90;;;;;;5058315;28;20071;-91
2022/12/23 00:46:40;;;;;;;5.13;3.70;;;12.50;78.90;;;;;;5040876;28;20374;-89
2022/12/23 00:51:50;;;;;;;5.13;3.90;;;12.50;79.00;;;;;;5057696;28;20039;-90
2022/12/23 00:54:16;;;;;;;6.00;4.30;;;12.50;79.00;;;;;;5073981;28;20461;-93
2022/12/23 00:56:42;;;;;;;6.97;4.78;;;12.50;79.00;;;;;;5074363;28;20473;-91
2022/12/23 00:59:08;;;;;;;5.85;4.22;;;12.50;79.00;;;;;;5074268;28;20039;-92
2022/12/23 01:07:04;;;;;;;5.60;4.37;;;12.60;78.90;;;;;;5057626;28;20036;-91
2022/12/23 01:09:30;;;;;;;5.28;3.80;;;12.50;78.90;;;;;;5057431;28;20040;-91
2022/12/23 01:11:56;;;;;;;5.93;4.32;;;12.50;78.90;;;;;;5041384;28;20028;-91
2022/12/23 01:14:22;;;;;;;5.95;4.55;;;12.50;78.90;;;;;;5074115;28;20031;-93
2022/12/23 01:16:48;;;;;;;6.72;4.47;;;12.60;79.00;;;;;;5040598;28;20062;-91
2022/12/23 01:19:14;;;;;;;5.72;4.55;;;12.50;78.90;;;;;;5074351;28;20082;-93
2022/12/23 01:21:40;;;;;;;6.35;4.70;;;12.60;79.00;;;;;;5056941;28;20036;-93
2022/12/23 01:24:07;;;;;;;6.03;4.45;;;12.60;78.90;;;;;;5056583;28;20055;-92
2022/12/23 01:26:33;;;;;;;6.28;4.63;;;12.60;78.90;;;;;;5056042;28;20070;-94
2022/12/23 01:28:59;;;;;;;6.32;4.57;;;12.60;78.90;;;;;;5073658;28;20119;-89
2022/12/23 01:31:26;;;;;;;8.02;4.63;;;12.60;79.00;;;;;;5074295;28;20484;-93
2022/12/23 01:33:53;;;;;;;5.60;4.20;;;12.60;79.00;;;;;;5075221;28;20123;-91
2022/12/23 01:36:19;;;;;;;5.78;4.40;;;12.60;78.90;;;;;;5062508;28;20013;-88
2022/12/23 01:38:45;;;;;;;5.53;4.45;;;12.60;78.90;;;;;;5069622;28;20131;-90
2022/12/23 01:42:42;;;;;;;5.68;4.55;;;12.60;78.90;;;;;;5059399;28;20028;-89
2022/12/23 01:44:41;;;;;;;5.75;4.30;;;12.60;78.90;;;;;;5074567;28;20099;-92
2022/12/23 01:47:12;;;;;;;5.95;4.07;;;12.60;78.90;;;;;;5056803;28;20033;-91
2022/12/23 01:49:39;;;;;;;5.53;4.30;;;12.60;79.40;;;;;;5057372;28;20055;-91
2022/12/23 01:52:04;;;;;;;6.13;4.32;;;12.60;78.90;;;;;;5056908;28;20345;-91
2022/12/23 01:54:31;;;;;;;6.88;4.47;;;12.60;78.80;;;;;;5056948;28;20032;-92
2022/12/23 01:56:57;;;;;;;5.80;4.35;;;12.60;78.90;;;;;;5073987;28;20037;-89
2022/12/23 02:04:53;;;;;;;5.88;4.43;;;12.70;78.90;;;;;;5073665;28;20036;-92
2022/12/23 02:10:05;;;;;;;6.28;4.85;;;12.60;78.90;;;;;;5059410;28;20477;-92
2022/12/23 02:12:51;;;;;;;6.78;4.78;;;12.60;78.90;;;;;;5041081;28;20037;-92
2022/12/23 02:18:46;;;;;;;6.65;4.38;;;12.60;79.00;;;;;;5061017;28;20482;-92
2022/12/23 02:21:21;;;;;;;5.60;4.50;;;12.60;79.00;;;;;;5061758;28;20036;-94
2022/12/23 02:24:11;;;;;;;5.95;4.45;;;12.60;78.90;;;;;;5078918;28;20025;-93
2022/12/23 02:27:22;;;;;;;5.43;4.10;;;12.60;79.00;;;;;;5062261;28;20035;-93
2022/12/23 02:30:11;;;;;;;6.03;4.40;;;12.60;79.00;;;;;;5060897;28;20132;-87
2022/12/23 02:33:05;;;;;;;6.47;4.97;;;12.60;78.90;;;;;;5053611;28;20040;-91
2022/12/23 02:35:57;;;;;;;6.10;4.68;;;12.60;79.00;;;;;;5065652;28;20035;-92
2022/12/23 02:38:34;;;;;;;6.07;4.30;;;12.60;79.60;;;;;;5064188;28;20028;-89
2022/12/23 02:41:27;;;;;;;5.57;4.22;;;12.70;79.00;;;;;;5079314;28;20491;-91
2022/12/23 02:43:56;;;;;;;5.97;4.45;;;12.60;78.90;;;;;;5057402;28;20033;-92
2022/12/23 02:46:31;;;;;;;6.60;4.78;;;12.60;78.80;;;;;;5076803;28;20039;-92
2022/12/23 02:49:11;;;;;;;6.85;5.32;;;12.70;78.90;;;;;;5076315;28;20104;-91
2022/12/23 02:51:41;;;;;;;7.15;4.65;;;12.70;78.90;;;;;;5060374;28;20025;-90
2022/12/23 02:54:13;;;;;;;5.70;4.22;;;12.70;78.90;;;;;;5060371;28;20029;-93
2022/12/23 02:56:43;;;;;;;6.88;4.97;;;12.60;78.90;;;;;;5077435;28;20092;-92
2022/12/23 02:59:16;;;;;;;6.82;5.00;;;12.70;78.90;;;;;;5076885;28;20063;-92
2022/12/23 03:01:44;;;;;;;6.63;4.93;;;12.70;79.00;;;;;;5059712;28;20047;-93
2022/12/23 03:04:10;;;;;;;7.18;5.13;;;12.70;79.00;;;;;;5059352;28;20020;-93
2022/12/23 03:06:41;;;;;;;7.53;5.03;;;12.70;79.00;;;;;;5076836;28;20067;-91
2022/12/23 03:09:08;;;;;;;7.63;5.15;;;12.70;78.90;;;;;;5059283;28;20036;-92
2022/12/23 03:12:02;;;;;;;7.13;5.18;;;12.70;78.90;;;;;;5058678;28;20047;-92
2022/12/23 03:15:01;;;;;;;7.38;4.97;;;12.70;78.90;;;;;;5075922;28;20028;-93
2022/12/23 03:17:46;;;;;;;5.72;4.32;;;12.70;78.90;;;;;;5075435;28;20032;-91
2022/12/23 03:20:33;;;;;;;7.00;5.10;;;12.70;78.90;;;;;;5075424;28;20067;-93
2022/12/23 03:23:16;;;;;;;6.68;5.10;;;12.70;78.90;;;;;;5042703;28;20035;-94
2022/12/23 03:25:48;;;;;;;6.82;5.35;;;12.70;78.90;;;;;;5041784;28;20450;-92
2022/12/23 03:28:16;;;;;;;6.80;4.82;;;12.70;79.00;;;;;;5058940;28;20024;-93
2022/12/23 03:30:46;;;;;;;6.97;4.80;;;12.70;79.00;;;;;;5076336;28;20049;-93
2022/12/23 03:33:14;;;;;;;6.68;4.82;;;12.60;79.00;;;;;;5059836;28;20024;-92
2022/12/23 03:35:46;;;;;;;6.97;5.18;;;12.70;79.00;;;;;;5059496;28;20033;-93
2022/12/23 03:38:15;;;;;;;6.75;4.85;;;12.70;79.00;;;;;;5090467;28;20052;-93
2022/12/23 03:40:48;;;;;;;9.90;5.20;;;12.70;79.00;;;;;;5060078;28;20043;-94
2022/12/23 03:43:21;;;;;;;6.57;4.95;;;12.70;79.00;;;;;;5076108;28;20032;-94
2022/12/23 03:45:53;;;;;;;7.47;5.22;;;12.70;79.00;;;;;;5058689;28;20029;-93
2022/12/23 03:48:30;;;;;;;7.47;5.28;;;12.70;79.00;;;;;;5075050;28;20029;-93
2022/12/23 03:51:01;;;;;;;7.50;5.63;;;12.70;79.00;;;;;;5075068;28;20032;-94
2022/12/23 03:53:32;;;;;;;7.57;5.10;;;12.70;79.00;;;;;;5041824;28;20040;-92
2022/12/23 03:56:06;;;;;;;7.22;5.20;;;12.70;79.00;;;;;;5075937;28;20039;-93
2022/12/23 03:58:32;;;;;;;7.17;5.27;;;12.70;78.90;;;;;;5074962;28;20024;-92
2022/12/23 04:01:14;;;;;;;6.97;5.18;;;12.70;78.90;;;;;;5075987;28;20035;-91
2022/12/23 04:04:07;;;;;;;6.97;5.15;;;12.70;78.90;;;;;;5058636;28;20021;-94
2022/12/23 04:06:50;;;;;;;6.88;5.30;;;12.70;78.90;;;;;;5092541;28;20017;-88
2022/12/23 04:09:18;;;;;;;6.40;4.90;;;12.70;78.90;;;;;;5066473;28;20044;-93
2022/12/23 04:11:44;;;;;;;6.50;5.03;;;12.70;78.90;;;;;;5074279;28;20029;-92
2022/12/23 04:14:09;;;;;;;6.78;4.82;;;12.70;78.90;;;;;;5041845;28;20424;-93
2022/12/23 04:16:35;;;;;;;6.97;5.28;;;12.70;78.90;;;;;;5057414;28;20040;-93
2022/12/23 04:19:01;;;;;;;6.68;4.82;;;12.70;78.90;;;;;;5057815;28;20025;-92
2022/12/23 04:21:27;;;;;;;6.15;4.30;;;12.70;78.90;;;;;;5058184;28;20040;-88
2022/12/23 04:23:53;;;;;;;6.82;4.75;;;12.70;78.90;;;;;;5057321;28;20052;-93
2022/12/23 04:26:18;;;;;;;6.88;4.78;;;12.70;78.90;;;;;;5040706;28;20036;-92
2022/12/23 04:28:44;;;;;;;7.13;5.05;;;12.70;78.90;;;;;;5057374;28;20028;-92
2022/12/23 04:31:10;;;;;;;6.38;4.72;;;12.70;78.90;;;;;;5070291;28;20078;-92
2022/12/23 04:33:36;;;;;;;7.03;5.18;;;12.70;78.90;;;;;;5054590;28;20535;-92
2022/12/23 04:36:01;;;;;;;7.30;5.32;;;12.70;78.90;;;;;;5053956;28;20100;-92
2022/12/23 04:38:27;;;;;;;6.43;4.95;;;12.70;78.90;;;;;;5037079;28;20465;-94
2022/12/23 04:40:53;;;;;;;6.60;4.68;;;12.70;78.90;;;;;;5037375;28;20037;-92
2022/12/23 04:43:19;;;;;;;6.93;5.07;;;12.70;78.90;;;;;;5054376;28;20033;-92
2022/12/23 04:45:50;;;;;;;6.00;4.40;;;12.70;78.90;;;;;;5053643;28;20033;-92
2022/12/23 04:48:16;;;;;;;5.72;4.45;;;12.70;78.90;;;;;;5070315;28;20389;-93
2022/12/23 04:50:42;;;;;;;6.97;4.90;;;12.70;79.50;;;;;;5020735;28;20037;-93
2022/12/23 04:53:07;;;;;;;6.10;4.57;;;12.70;78.90;;;;;;5037080;28;20389;-94
2022/12/23 04:55:33;;;;;;;5.78;4.43;;;12.70;78.90;;;;;;5037180;28;20469;-92
2022/12/23 04:57:59;;;;;;;5.85;4.47;;;12.70;78.90;;;;;;5053541;28;20056;-88
2022/12/23 05:00:25;;;;;;;6.72;4.70;;;12.70;78.90;;;;;;5054455;28;20041;-92
2022/12/23 05:02:51;;;;;;;6.07;4.70;;;12.70;78.90;;;;;;5070169;28;20107;-90
2022/12/23 05:05:16;;;;;;;6.80;4.55;;;12.70;78.90;;;;;;5036511;28;20029;-92
2022/12/23 05:07:42;;;;;;;6.10;4.45;;;12.70;78.90;;;;;;5053578;28;20055;-91
2022/12/23 05:10:09;;;;;;;6.45;4.47;;;12.70;78.90;;;;;;5020249;28;20087;-93
2022/12/23 05:12:34;;;;;;;6.43;4.70;;;12.70;78.90;;;;;;5036940;28;20124;-93
2022/12/23 05:15:00;;;;;;;6.00;4.18;;;12.70;78.90;;;;;;5053474;28;20427;-88
2022/12/23 05:17:26;;;;;;;5.97;4.10;;;12.70;78.90;;;;;;5036379;28;20511;-91
2022/12/23 05:19:51;;;;;;;6.00;4.28;;;12.70;78.90;;;;;;5036624;28;20040;-93
2022/12/23 05:22:17;;;;;;;5.93;4.35;;;12.70;78.90;;;;;;5020634;28;20036;-92
2022/12/23 05:24:43;;;;;;;6.75;4.65;;;12.70;78.90;;;;;;5038578;28;20031;-92
2022/12/23 05:27:09;;;;;;;5.32;4.03;;;12.70;78.90;;;;;;5055571;28;20484;-91
2022/12/23 05:29:34;;;;;;;6.40;4.32;;;12.70;78.90;;;;;;5055645;28;20049;-92
2022/12/23 05:32:00;;;;;;;5.90;4.32;;;12.60;78.90;;;;;;5054239;28;20056;-92
2022/12/23 05:34:26;;;;;;;5.93;4.28;;;12.70;78.90;;;;;;5036955;28;20100;-93
2022/12/23 05:36:52;;;;;;;6.50;4.60;;;12.70;78.90;;;;;;5036771;28;20029;-93
2022/12/23 05:39:17;;;;;;;6.03;4.07;;;12.60;78.90;;;;;;5037991;28;20086;-93
2022/12/23 05:41:44;;;;;;;6.13;4.47;;;12.60;78.90;;;;;;5054667;28;20407;-93
2022/12/23 05:44:10;;;;;;;6.22;4.80;;;12.60;78.90;;;;;;5036835;28;20584;-91
2022/12/23 05:46:36;;;;;;;6.78;4.68;;;12.60;78.90;;;;;;5055622;28;20037;-90
2022/12/23 05:49:01;;;;;;;6.03;4.40;;;12.60;78.90;;;;;;5039817;28;20479;-92
2022/12/23 05:51:27;;;;;;;7.00;4.32;;;12.60;78.90;;;;;;5041724;28;20029;-92
2022/12/23 05:53:53;;;;;;;6.10;4.60;;;12.60;78.90;;;;;;5041215;28;20067;-90
2022/12/23 05:56:19;;;;;;;6.20;4.60;;;12.60;78.90;;;;;;5043360;28;20036;-89
2022/12/23 05:58:44;;;;;;;5.38;4.10;;;12.60;78.90;;;;;;5042686;28;20035;-91
2022/12/23 06:01:10;;;;;;;6.05;4.25;;;12.60;78.90;;;;;;5053144;28;20035;-90
2022/12/23 06:03:36;;;;;;;6.18;4.57;;;12.60;78.90;;;;;;5055271;28;20028;-92
2022/12/23 06:06:02;;;;;;;6.18;4.57;;;12.60;78.90;;;;;;5042110;28;20029;-92
2022/12/23 06:08:28;;;;;;;5.85;4.40;;;12.60;78.90;;;;;;5058089;28;20044;-90
2022/12/23 06:10:54;;;;;;;6.15;4.30;;;12.60;78.90;;;;;;5042591;28;20033;-93
2022/12/23 06:13:19;;;;;;;5.82;4.00;;;12.60;78.90;;;;;;5058600;28;20029;-91
2022/12/23 06:15:45;;;;;;;6.53;4.32;;;12.60;78.90;;;;;;5058844;28;20111;-92
2022/12/23 06:18:11;;;;;;;5.90;4.05;;;12.60;78.90;;;;;;5058671;28;20033;-93
2022/12/23 06:20:37;;;;;;;5.88;4.18;;;12.60;78.90;;;;;;5057292;28;20044;-91
2022/12/23 06:23:03;;;;;;;5.70;4.03;;;12.60;78.90;;;;;;5041035;28;20029;-92
2022/12/23 06:25:28;;;;;;;5.75;4.35;;;12.60;78.90;;;;;;5058770;28;20477;-91
2022/12/23 06:27:54;;;;;;;6.07;4.10;;;12.60;78.90;;;;;;5058199;28;20419;-91
2022/12/23 06:30:20;;;;;;;5.82;4.28;;;12.60;79.60;;;;;;5057264;28;20132;-91
2022/12/23 06:32:46;;;;;;;5.88;4.15;;;12.60;78.90;;;;;;5056858;28;20481;-91
2022/12/23 06:35:12;;;;;;;5.57;4.05;;;12.60;79.00;;;;;;5057702;28;20040;-90
2022/12/23 06:37:38;;;;;;;6.25;4.10;;;12.60;79.00;;;;;;5074043;28;20124;-90
2022/12/23 06:40:04;;;;;;;6.10;4.40;;;12.60;79.00;;;;;;5058298;28;20068;-92
2022/12/23 06:42:30;;;;;;;6.32;4.60;;;12.60;79.00;;;;;;5040240;28;20021;-91
2022/12/23 06:44:56;;;;;;;5.57;3.90;;;12.50;78.90;;;;;;5039709;28;20105;-91
2022/12/23 06:47:21;;;;;;;5.57;3.97;;;12.50;78.90;;;;;;5056804;28;20033;-91
2022/12/23 06:49:47;;;;;;;5.75;3.92;;;12.60;78.90;;;;;;5056420;28;20060;-92
2022/12/23 06:52:13;;;;;;;5.70;3.88;;;12.50;78.90;;;;;;5039796;28;20359;-91
2022/12/23 06:54:38;;;;;;;5.97;4.22;;;12.50;78.90;;;;;;5039353;28;20029;-91
2022/12/23 06:57:13;;;;;;;6.30;4.00;;;12.50;78.90;;;;;;5039729;28;20029;-95
2022/12/23 06:59:39;;;;;;;5.35;3.72;;;12.50;78.90;;;;;;5055687;28;20032;-90
2022/12/23 07:02:05;;;;;;;5.53;3.90;;;12.50;78.90;;;;;;5039416;28;20051;-93
2022/12/23 07:04:31;;;;;;;6.00;4.13;;;12.50;78.90;;;;;;5038945;28;20052;-93
2022/12/23 07:06:57;;;;;;;5.07;3.53;;;12.50;78.90;;;;;;5072397;28;20040;-94
2022/12/23 07:09:23;;;;;;;5.68;4.10;;;12.50;79.00;;;;;;5071767;28;20029;-96
2022/12/23 07:11:49;;;;;;;5.78;3.78;;;12.50;79.00;;;;;;5059015;28;20036;-94
2022/12/23 07:14:15;;;;;;;5.18;3.60;;;12.50;79.00;;;;;;5063258;28;20039;-93
2022/12/23 07:16:41;;;;;;;5.57;3.65;;;12.50;79.00;;;;;;5061933;28;20420;-94
2022/12/23 07:19:06;;;;;;;5.63;3.83;;;12.50;79.00;;;;;;5059433;28;20025;-93
2022/12/23 07:21:33;;;;;;;5.88;4.00;;;12.50;79.60;;;;;;5060124;28;20087;-93
2022/12/23 07:23:59;;;;;;;5.03;3.50;;;12.50;79.00;;;;;;5057271;28;20036;-95
2022/12/23 07:26:25;;;;;;;5.43;3.97;;;12.50;78.90;;;;;;5039801;28;20462;-92
2022/12/23 07:28:50;;;;;;;5.32;4.05;;;12.40;78.90;;;;;;5038527;28;20104;-89
2022/12/23 07:31:16;;;;;;;5.57;3.88;;;12.40;78.90;;;;;;5072730;28;20116;-89
2022/12/23 07:33:42;;;;;;;5.75;4.00;;;12.40;78.90;;;;;;5040150;28;20408;-88
2022/12/23 07:36:08;;;;;;;4.63;3.22;;;12.40;79.10;;;;;;5056075;28;20038;-93
2022/12/23 07:38:34;;;;;;;4.70;3.53;;;12.40;78.90;;;;;;5039179;28;20021;-90
2022/12/23 07:40:59;;;;;;;5.35;3.75;;;12.40;78.90;;;;;;5038220;28;20067;-86
2022/12/23 07:43:25;;;;;;;5.70;4.05;;;12.40;78.90;;;;;;5038062;28;20033;-83
2022/12/23 07:45:51;;;;;;;5.03;3.35;;;12.40;78.90;;;;;;5038468;28;20135;-89
2022/12/23 07:48:17;;;;;;;4.72;3.28;;;12.40;78.90;;;;;;5054575;28;20056;-88
2022/12/23 07:50:43;;;;;;;5.70;4.00;;;12.40;78.90;;;;;;5039148;28;20060;-92
2022/12/23 07:53:08;;;;;;;5.90;4.00;;;12.40;78.90;;;;;;5054901;28;20079;-91
2022/12/23 07:55:35;;;;;;;4.38;3.13;;;12.40;78.90;;;;;;5055660;28;20074;-94
2022/12/23 07:58:01;;;;;;;4.93;3.70;;;12.40;78.90;;;;;;5043453;28;20044;-87
2022/12/23 08:00:27;;;;;;;5.20;3.67;;;12.40;78.90;;;;;;5056367;28;20041;-91
2022/12/23 08:02:52;;;;;;;4.50;3.30;;;12.40;78.90;;;;;;5054922;28;20037;-91
2022/12/23 08:05:18;;;;;;;5.20;3.45;;;12.40;78.90;;;;;;5071538;28;20469;-89
2022/12/23 08:07:44;;;;;;;5.95;3.90;;;12.40;78.90;;;;;;5054648;28;20021;-90
2022/12/23 08:10:11;;;;;;;5.63;3.90;;;12.40;78.90;;;;;;5053906;28;20091;-89
2022/12/23 08:12:36;;;;;;;4.47;3.28;;;12.30;78.80;;;;;;5037970;28;20029;-87
2022/12/23 08:15:02;;;;;;;6.03;3.67;;;12.30;78.80;;;;;;5055034;28;20441;-92
2022/12/23 08:17:29;;;;;;;5.32;3.63;;;12.30;78.80;;;;;;5055536;28;20032;-90
2022/12/23 08:19:55;;;;;;;5.07;3.28;;;12.40;78.90;;;;;;5037731;28;20035;-89
2022/12/23 08:22:22;;;;;;;4.60;3.33;;;12.30;78.80;;;;;;5037542;28;20095;-91
2022/12/23 08:24:48;;;;;;;4.32;3.15;;;12.30;78.80;;;;;;5037726;28;20029;-91
2022/12/23 08:27:15;;;;;;;4.97;3.33;;;12.30;78.80;;;;;;5054511;28;20436;-90
2022/12/23 08:29:41;;;;;;;3.88;2.88;;;12.30;78.80;;;;;;5038247;28;20049;-92
2022/12/23 08:32:07;;;;;;;4.75;3.25;;;12.30;78.80;;;;;;5037650;28;20021;-92
2022/12/23 08:34:33;;;;;;;5.20;3.67;;;12.30;78.80;;;;;;5054286;28;20124;-86
2022/12/23 08:36:59;;;;;;;4.70;3.47;;;12.30;78.80;;;;;;5054499;28;20065;-88
2022/12/23 08:39:25;;;;;;;4.50;3.20;;;12.30;78.80;;;;;;5054037;28;20354;-90
2022/12/23 08:41:50;;;;;;;4.72;3.38;;;12.30;78.80;;;;;;5053908;28;20072;-89
2022/12/23 08:44:16;;;;;;;4.50;3.10;;;12.30;78.80;;;;;;5037690;28;20441;-88
2022/12/23 08:46:42;;;;;;;5.65;3.65;;;12.30;78.90;;;;;;5055584;28;20113;-89
2022/12/23 08:49:09;;;;;;;4.30;2.97;;;12.30;78.90;;;;;;5037102;28;20052;-88
2022/12/23 08:51:35;;;;;;;4.88;3.63;;;12.30;78.90;;;;;;5037081;28;20072;-89
2022/12/23 08:54:02;;;;;;;4.63;3.35;;;12.30;78.90;;;;;;5054536;28;20108;-91
2022/12/23 08:56:31;;;;;;;5.15;3.45;;;12.30;78.90;;;;;;5053898;28;20033;-91
2022/12/23 08:58:57;;;;;;;5.38;3.67;;;12.30;78.90;;;;;;5036881;28;20082;-87
2022/12/23 09:01:26;;;;;;;5.25;3.30;;;12.30;79.00;;;;;;5036843;28;20033;-89
2022/12/23 09:03:52;;;;;;;5.55;3.67;;;12.30;79.00;;;;;;5054616;28;20481;-88
2022/12/23 09:06:25;;;;;;;4.63;3.40;;;12.30;79.00;;;;;;5053652;28;20063;-90
2022/12/23 09:08:51;;;;;;;4.55;3.08;;;12.30;79.10;;;;;;5054160;28;20040;-88
2022/12/23 09:11:20;;;;;;;5.10;3.70;;;12.30;79.10;;;;;;5053460;28;20033;-89
2022/12/23 09:13:46;;;;;;;4.65;3.20;;;12.30;79.10;;;;;;5056194;28;20055;-88
2022/12/23 09:16:12;;;;;;;4.90;3.30;;;12.30;79.00;;;;;;5056095;28;20104;-88
2022/12/23 09:18:38;;;;;;;4.18;3.05;;;12.30;79.00;;;;;;5055128;28;20037;-90
2022/12/23 09:21:06;;;;;;;5.05;3.55;;;12.30;79.00;;;;;;5055824;28;20478;-85
2022/12/23 09:23:33;;;;;;;4.65;3.15;;;12.30;79.00;;;;;;5054351;28;20060;-88
2022/12/23 09:25:59;;;;;;;4.78;3.30;;;12.30;79.00;;;;;;5055444;28;20124;-90
2022/12/23 09:28:25;;;;;;;5.43;3.78;;;12.30;79.10;;;;;;5054636;28;20048;-89
2022/12/23 09:30:51;;;;;;;4.40;3.33;;;12.30;79.10;;;;;;5050689;28;20058;-87
2022/12/23 09:33:18;;;;;;;5.20;3.58;;;12.20;79.00;;;;;;5049726;28;20122;-89
2022/12/23 09:35:44;;;;;;;5.35;3.70;;;12.30;79.10;;;;;;5035637;28;20033;-88
2022/12/23 09:38:10;;;;;;;5.22;3.50;;;12.30;79.00;;;;;;5018187;28;20038;-90
2022/12/23 09:40:38;;;;;;;5.57;3.42;;;12.30;79.00;;;;;;5052009;28;20068;-89
2022/12/23 09:43:22;;;;;;;5.20;3.70;;;12.30;79.10;;;;;;5051747;28;20026;-90
2022/12/23 09:46:15;;;;;;;4.70;3.20;;;12.30;79.10;;;;;;5051566;28;20075;-88
2022/12/23 09:49:08;;;;;;;5.35;3.60;;;12.30;79.10;;;;;;5053788;28;20034;-91
2022/12/23 09:51:34;;;;;;;5.15;3.53;;;12.30;79.10;;;;;;5055075;28;20081;-92
2022/12/23 09:54:19;;;;;;;5.20;3.60;;;12.30;79.00;;;;;;5038828;28;20029;-92
2022/12/23 09:56:54;;;;;;;5.22;3.53;;;12.30;79.10;;;;;;5037833;28;20048;-88
2022/12/23 09:59:47;;;;;;;5.03;3.42;;;12.30;79.00;;;;;;5050096;28;20462;-90
2022/12/23 10:02:44;;;;;;;4.85;3.50;;;12.30;79.00;;;;;;5033905;28;20037;-89
2022/12/23 10:05:24;;;;;;;4.60;3.03;;;12.30;79.00;;;;;;5049847;28;20112;-90
2022/12/23 10:08:23;;;;;;;5.90;3.70;;;12.30;79.00;;;;;;5050499;28;20080;-89
2022/12/23 10:11:29;;;;;;;5.80;4.00;;;12.20;79.00;;;;;;5021862;28;20052;-90
2022/12/23 10:13:58;;;;;;;;;;;12.20;79.00;;;;;;5032359;28;20042;-89
2022/12/23 10:16:37;;;;;;;4.65;3.17;;;12.20;78.80;;;;;;5016549;28;20400;-90
2022/12/23 10:19:20;;;;;;;4.82;3.15;;;12.20;78.80;;;;;;5049717;28;20096;-86
2022/12/23 10:22:05;;;;;;;5.88;3.63;;;12.30;79.00;;;;;;5050743;28;20037;-87
2022/12/23 10:24:40;;;;;;;5.20;3.53;;;12.20;78.90;;;;;;5036450;28;20033;-86
2022/12/23 10:27:22;;;;;;;5.00;3.35;;;12.20;78.90;;;;;;5049559;28;20068;-85
2022/12/23 10:29:48;;;;;;;6.22;3.75;;;12.30;79.00;;;;;;5055472;28;20040;-85
2022/12/23 10:32:31;;;;;;;6.10;4.05;;;12.20;78.90;;;;;;5052462;28;20048;-88
2022/12/23 10:35:25;;;;;;;6.00;3.70;;;12.20;79.00;;;;;;5070734;28;20029;-89
2022/12/23 10:37:56;;;;;;;5.30;3.60;;;12.30;79.00;;;;;;5039634;28;20055;-88
2022/12/23 10:40:38;;;;;;;6.35;4.07;;;12.20;78.90;;;;;;5055831;28;20116;-90
2022/12/23 10:43:22;;;;;;;5.90;4.15;;;12.30;78.90;;;;;;5072878;28;20412;-88
2022/12/23 10:46:16;;;;;;;6.03;3.80;;;12.30;78.90;;;;;;5057229;28;20028;-89
2022/12/23 10:49:09;;;;;;;6.53;4.22;;;12.30;79.00;;;;;;5072822;28;20047;-87
2022/12/23 10:51:52;;;;;;;5.65;3.70;;;12.30;78.90;;;;;;5057537;28;20090;-89
2022/12/23 10:54:45;;;;;;;6.30;4.05;;;12.30;79.00;;;;;;5039657;28;20409;-89
2022/12/23 10:57:12;;;;;;;5.93;4.05;;;12.30;79.00;;;;;;5054086;28;20049;-90
2022/12/23 10:59:39;;;;;;;6.68;4.28;;;12.30;78.90;;;;;;5055778;28;20067;-88
2022/12/23 11:02:11;;;;;;;6.00;4.03;;;12.30;79.00;;;;;;5039531;28;20033;-89
2022/12/23 11:04:39;;;;;;;6.57;4.45;;;12.30;79.00;;;;;;5039228;28;20025;-88
2022/12/23 11:07:15;;;;;;;7.00;4.60;;;12.30;78.90;;;;;;5056702;28;20056;-90
2022/12/23 11:09:57;;;;;;;6.45;4.30;;;12.30;78.90;;;;;;5055936;28;20524;-89
2022/12/23 11:12:35;;;;;;;6.90;4.80;;;12.30;79.00;;;;;;5056136;28;20474;-91
2022/12/23 11:15:01;;;;;;;6.13;4.22;;;12.30;78.90;;;;;;5039184;28;20036;-90
2022/12/23 11:17:34;;;;;;;6.40;4.45;;;12.30;78.90;;;;;;5056202;28;20033;-89
2022/12/23 11:20:09;;;;;;;6.82;4.47;;;12.30;78.90;;;;;;5072392;28;20040;-91
2022/12/23 11:22:44;;;;;;;;;;;12.30;79.00;;;;;;5057376;28;20025;-90
2022/12/23 11:25:29;;;;;;;6.35;4.30;;;12.30;78.80;;;;;;5039091;28;19909;-86
2022/12/23 11:28:10;;;;;;;6.47;4.30;;;12.30;78.80;;;;;;5055840;28;20029;-89
2022/12/23 11:30:44;;;;;;;7.03;4.25;;;12.30;78.90;;;;;;5042139;28;20186;-92
2022/12/23 11:33:25;;;;;;;7.30;5.07;;;12.30;78.80;;;;;;5035818;28;20529;-94
2022/12/23 11:36:00;;;;;;;6.72;4.47;;;12.30;78.90;;;;;;5052523;28;20029;-95
2022/12/23 11:38:26;;;;;;;7.28;4.57;;;12.30;78.90;;;;;;5035836;28;20127;-90
2022/12/23 11:40:52;;;;;;;6.70;4.93;;;12.30;79.50;;;;;;5052117;28;20560;-93
2022/12/23 11:43:19;;;;;;;7.20;5.15;;;12.30;78.90;;;;;;5035439;28;20022;-95
2022/12/23 11:45:45;;;;;;;7.72;5.30;;;12.30;78.90;;;;;;5034553;28;20038;-93
2022/12/23 11:48:29;;;;;;;6.82;4.95;;;12.30;79.00;;;;;;5018373;28;20030;-93
2022/12/23 11:51:03;;;;;;;7.97;5.13;;;12.30;79.00;;;;;;5035728;28;20090;-92
2022/12/23 11:53:29;;;;;;;8.85;5.60;;;12.40;79.00;;;;;;5051396;28;20041;-90
2022/12/23 11:56:07;;;;;;;7.93;4.97;;;12.30;78.90;;;;;;5051764;28;20033;-95
2022/12/23 11:58:48;;;;;;;8.15;5.57;;;12.40;79.00;;;;;;5035238;28;20033;-93
2022/12/23 12:01:17;;;;;;;7.57;5.57;;;12.40;78.90;;;;;;5051839;28;20124;-92
2022/12/23 12:03:54;;;;;;;6.95;4.85;;;12.40;78.90;;;;;;5036443;28;20021;-91
2022/12/23 12:06:21;;;;;;;9.13;5.72;;;12.40;78.90;;;;;;5037125;28;20108;-89
2022/12/23 12:08:50;;;;;;;7.75;5.63;;;12.40;78.90;;;;;;5051800;28;20030;-93
2022/12/23 12:11:20;;;;;;;9.90;6.63;;;12.40;78.90;;;;;;5051173;28;20040;-94
2022/12/23 12:13:48;;;;;;;9.38;6.57;;;12.40;78.90;;;;;;5018794;28;20045;-90
2022/12/23 12:16:29;;;;;;;9.75;6.32;;;12.40;78.80;;;;;;5034964;28;20116;-93
2022/12/23 12:19:03;;;;;;;9.68;6.47;;;12.40;78.90;;;;;;5049109;28;20036;-90
2022/12/23 12:21:35;;;;;;;8.65;6.05;;;12.40;78.80;;;;;;5063023;28;20064;-92
2022/12/23 12:24:26;;;;;;;10.13;7.05;;;12.40;78.80;;;;;;5051442;28;20089;-91
2022/12/23 12:26:55;;;;;;;9.18;6.43;;;12.40;78.80;;;;;;5051544;28;20029;-88
2022/12/23 12:29:44;;;;;;;10.05;7.07;;;12.40;78.70;;;;;;5041102;28;20176;-90
2022/12/23 12:32:29;;;;;;;7.97;5.93;;;12.40;78.90;;;;;;5075583;28;20024;-90
2022/12/23 12:35:13;;;;;;;9.35;6.57;;;12.40;78.80;;;;;;5057765;28;20115;-92
2022/12/23 12:37:54;;;;;;;8.38;6.45;;;12.40;78.80;;;;;;5057582;28;20033;-90
2022/12/23 12:40:24;;;;;;;9.77;6.45;;;12.40;78.80;;;;;;5041274;28;20082;-87
2022/12/23 12:43:00;;;;;;;10.23;6.72;;;12.40;78.80;;;;;;5057503;28;20109;-92
2022/12/23 12:45:51;;;;;;;9.85;6.82;;;12.40;78.80;;;;;;5075034;28;20111;-91
2022/12/23 12:48:40;;;;;;;9.85;6.80;;;12.40;78.80;;;;;;5056857;28;20040;-93
2022/12/23 12:51:28;;;;;;;8.38;5.93;;;12.40;78.90;;;;;;5056966;28;20047;-94
2022/12/23 12:54:19;;;;;;;9.55;6.22;;;12.40;78.80;;;;;;5057718;28;20469;-93
2022/12/23 12:57:01;;;;;;;9.43;6.70;;;12.40;78.80;;;;;;5057355;28;20369;-91
2022/12/23 12:59:32;;;;;;;8.73;5.80;;;12.40;78.80;;;;;;5053877;28;20121;-92
2022/12/23 13:02:14;;;;;;;9.05;6.63;;;12.40;79.50;;;;;;5074859;28;20032;-92
2022/12/23 13:04:59;;;;;;;8.93;6.57;;;12.40;78.90;;;;;;5073914;28;20047;-92
2022/12/23 13:08:02;;;;;;;9.38;6.40;;;12.40;78.90;;;;;;5074694;28;20025;-94
2022/12/23 13:10:36;;;;;;;7.70;5.75;;;12.40;78.90;;;;;;5057384;28;20534;-91
2022/12/23 13:13:33;;;;;;;8.75;6.30;;;12.40;78.90;;;;;;5073986;28;20060;-91
2022/12/23 13:16:10;;;;;;;8.52;6.15;;;12.40;78.90;;;;;;5056823;28;20095;-92
2022/12/23 13:19:01;;;;;;;8.73;6.63;;;12.40;78.90;;;;;;5057750;28;20099;-94
2022/12/23 13:21:48;;;;;;;9.13;6.35;;;12.40;79.00;;;;;;5057069;28;20114;-93
2022/12/23 13:24:32;;;;;;;10.50;6.55;;;12.40;78.90;;;;;;5074276;28;20032;-94
2022/12/23 13:27:10;;;;;;;9.32;6.60;;;12.40;78.90;;;;;;5057557;28;20029;-94
2022/12/23 13:29:43;;;;;;;9.05;6.38;;;12.40;78.90;;;;;;5056811;28;20166;-94
2022/12/23 13:32:36;;;;;;;8.45;6.38;;;12.40;79.00;;;;;;5057024;28;20021;-94
2022/12/23 13:35:17;;;;;;;9.02;6.70;;;12.40;79.00;;;;;;5075153;28;20036;-95
2022/12/23 13:38:19;;;;;;;8.45;6.40;;;12.40;78.90;;;;;;5040782;28;20115;-92
2022/12/23 13:41:14;;;;;;;8.75;6.15;;;12.40;78.90;;;;;;5057425;28;20029;-94